Time;durP1;ratioP1;P1;durP2;ratioP2;P2;SDS_P1;SDS_P2;PMS_P1;PMS_P2;Temp;Humidity;BMP_temperature;BMP_pressure;BME280_temperature;BME280_humidity;BME280_pressure;Samples;Min_cycle;Max_cycle;Signal;HPM_P1;HPM_P2
2023/07/01 00:01:18;;;;;;;3.92;1.90;;;;;;;18.66;49.82;100709.69;4995855;28;20145;-47
2023/07/01 00:03:44;;;;;;;6.82;2.15;;;;;;;18.63;49.62;100701.97;4999990;28;20088;-48
2023/07/01 00:06:09;;;;;;;9.80;2.60;;;;;;;18.61;49.82;100703.16;4997473;28;20468;-49
2023/07/01 00:08:34;;;;;;;6.15;2.00;;;;;;;18.59;50.54;100697.97;4997839;28;20442;-47
2023/07/01 00:11:00;;;;;;;5.43;2.40;;;;;;;18.58;50.51;100698.97;4997455;28;20049;-47
2023/07/01 00:13:27;;;;;;;6.07;2.20;;;;;;;18.60;50.02;100690.72;4998636;28;20044;-47
2023/07/01 00:15:53;;;;;;;6.38;2.25;;;;;;;18.57;50.79;100691.91;4996502;28;20084;-48
2023/07/01 00:18:19;;;;;;;5.10;1.90;;;;;;;18.60;51.12;100682.66;4995028;28;20053;-47
2023/07/01 00:20:44;;;;;;;5.03;2.15;;;;;;;18.58;50.88;100682.81;4993077;28;20065;-47
2023/07/01 00:23:09;;;;;;;5.07;2.28;;;;;;;18.56;51.46;100682.16;4999531;28;20057;-47
2023/07/01 00:25:35;;;;;;;4.97;2.10;;;;;;;18.55;50.98;100676.97;4995770;28;20019;-47
2023/07/01 00:28:00;;;;;;;6.32;2.38;;;;;;;18.52;51.16;100666.53;4999533;28;20487;-47
2023/07/01 00:30:25;;;;;;;7.85;2.20;;;;;;;18.47;51.68;100670.59;4998238;28;20035;-47
2023/07/01 00:32:50;;;;;;;4.63;1.98;;;;;;;18.48;51.74;100669.59;5002419;28;20030;-47
2023/07/01 00:35:16;;;;;;;3.85;2.15;;;;;;;18.48;52.06;100663.38;4997722;28;20054;-47
2023/07/01 00:37:41;;;;;;;5.55;2.35;;;;;;;18.44;52.82;100657.50;5003299;28;20149;-48
2023/07/01 00:40:07;;;;;;;4.85;2.10;;;;;;;18.44;52.62;100657.50;5006575;28;20038;-48
2023/07/01 00:42:32;;;;;;;4.60;2.00;;;;;;;18.43;52.74;100657.66;5000044;28;20080;-47
2023/07/01 00:44:58;;;;;;;5.03;2.28;;;;;;;18.42;53.36;100651.47;5002157;28;20018;-46
2023/07/01 00:47:24;;;;;;;8.52;2.70;;;;;;;18.44;53.17;100648.59;5000514;28;20028;-47
2023/07/01 00:49:50;;;;;;;6.15;2.72;;;;;;;18.43;52.97;100655.81;4998805;28;20539;-47
2023/07/01 00:52:17;;;;;;;6.22;2.10;;;;;;;18.40;53.38;100649.94;5003994;28;20034;-47
2023/07/01 00:54:42;;;;;;;5.47;2.20;;;;;;;18.40;54.57;100655.31;5001907;28;20070;-47
2023/07/01 00:57:08;;;;;;;6.15;2.25;;;;;;;18.40;54.91;100644.56;5002484;28;20511;-47
2023/07/01 00:59:33;;;;;;;4.75;2.05;;;;;;;18.35;56.06;100636.19;4995740;28;20394;-47
2023/07/01 01:02:10;;;;;;;5.80;1.95;;;;;;;18.38;55.47;100643.91;5001839;28;20057;-47
2023/07/01 01:04:44;;;;;;;3.47;1.85;;;;;;;18.29;56.19;100630.50;5001658;28;20027;-47
2023/07/01 01:07:21;;;;;;;6.53;2.10;;;;;;;18.31;55.23;100631.16;5000945;28;20121;-47
2023/07/01 01:09:57;;;;;;;4.63;2.05;;;;;;;18.28;55.38;100623.44;5002524;28;20026;-47
2023/07/01 01:12:26;;;;;;;4.95;2.35;;;;;;;18.26;56.44;100624.63;5002222;28;20026;-47
2023/07/01 01:14:53;;;;;;;5.90;2.20;;;;;;;18.26;56.52;100617.41;4997219;28;20026;-47
2023/07/01 01:17:21;;;;;;;6.47;2.40;;;;;;;18.23;56.41;100609.66;5004532;28;20045;-47
2023/07/01 01:19:53;;;;;;;8.57;2.38;;;;;;;18.22;55.93;100616.06;5000681;28;20061;-47
2023/07/01 01:22:22;;;;;;;5.13;2.65;;;;;;;18.23;56.56;100603.47;4998589;28;20080;-46
2023/07/01 01:24:54;;;;;;;5.30;2.20;;;;;;;18.23;56.50;100609.66;4999555;28;20030;-47
2023/07/01 01:27:28;;;;;;;6.80;2.10;;;;;;;18.24;56.93;100603.28;5002963;28;20037;-46
2023/07/01 01:29:54;;;;;;;9.27;2.45;;;;;;;18.22;57.17;100610.72;5002300;28;20034;-46
2023/07/01 01:32:19;;;;;;;4.28;2.30;;;;;;;18.19;57.54;100600.28;5001336;28;20490;-47
2023/07/01 01:34:45;;;;;;;3.67;2.05;;;;;;;18.17;58.36;100602.31;5002861;28;20046;-47
2023/07/01 01:37:18;;;;;;;3.85;2.17;;;;;;;18.18;59.21;100603.16;5000554;28;20026;-47
2023/07/01 01:39:46;;;;;;;7.90;2.40;;;;;;;18.16;62.36;100597.13;4999793;28;20503;-47
2023/07/01 01:42:27;;;;;;;4.57;2.00;;;;;;;18.18;61.43;100592.41;4998511;28;20031;-47
2023/07/01 01:44:54;;;;;;;5.03;2.25;;;;;;;18.15;62.31;100596.25;4998682;28;20450;-46
2023/07/01 01:47:26;;;;;;;6.72;2.40;;;;;;;18.12;62.28;100597.47;5000824;28;20483;-47
2023/07/01 01:49:58;;;;;;;4.63;2.20;;;;;;;18.08;62.97;100585.38;5000406;28;20027;-47
2023/07/01 01:52:24;;;;;;;5.72;2.33;;;;;;;18.09;63.14;100588.91;5001580;28;20030;-47
2023/07/01 01:54:52;;;;;;;6.18;2.60;;;;;;;18.09;62.59;100580.84;4984477;28;20022;-47
2023/07/01 01:57:18;;;;;;;4.38;2.70;;;;;;;18.06;63.29;100586.56;4997630;28;20091;-47
2023/07/01 01:59:44;;;;;;;6.53;2.35;;;;;;;18.02;63.95;100575.31;4998474;28;20038;-47
2023/07/01 02:02:10;;;;;;;7.07;2.38;;;;;;;18.01;64.07;100575.50;4999138;28;20022;-47
2023/07/01 02:04:36;;;;;;;4.60;2.50;;;;;;;18.00;63.79;100576.50;4998312;28;20323;-47
2023/07/01 02:07:02;;;;;;;4.80;2.67;;;;;;;18.00;64.36;100579.19;5001613;28;20144;-47
2023/07/01 02:09:28;;;;;;;5.65;2.30;;;;;;;17.99;64.28;100580.22;4994945;28;20023;-47
2023/07/01 02:11:54;;;;;;;7.10;2.85;;;;;;;17.96;64.35;100575.19;5001459;28;20021;-47
2023/07/01 02:14:20;;;;;;;5.70;2.50;;;;;;;17.98;64.65;100575.84;4996298;28;20030;-47
2023/07/01 02:16:45;;;;;;;5.78;2.45;;;;;;;17.98;64.40;100568.59;4999691;28;20075;-47
2023/07/01 02:19:10;;;;;;;7.63;2.47;;;;;;;17.94;65.49;100559.22;5004940;28;20391;-46
2023/07/01 02:21:36;;;;;;;7.35;2.75;;;;;;;17.93;65.89;100562.91;5001372;28;20352;-47
2023/07/01 02:24:01;;;;;;;4.70;2.60;;;;;;;17.91;66.23;100562.25;4999438;28;20030;-47
2023/07/01 02:26:26;;;;;;;6.10;3.08;;;;;;;17.87;66.81;100556.41;5003387;28;20550;-47
2023/07/01 02:28:52;;;;;;;6.70;2.88;;;;;;;17.83;66.95;100544.25;4999561;28;20041;-47
2023/07/01 02:31:18;;;;;;;5.82;2.70;;;;;;;17.80;68.44;100547.28;5002867;28;20061;-48
2023/07/01 02:33:44;;;;;;;6.13;2.58;;;;;;;17.75;69.08;100534.41;4998868;28;20042;-46
2023/07/01 02:36:10;;;;;;;6.40;2.53;;;;;;;17.74;69.80;100534.56;4997649;28;20097;-47
2023/07/01 02:38:35;;;;;;;10.10;2.63;;;;;;;17.72;71.05;100529.38;5001722;28;20109;-46
2023/07/01 02:41:01;;;;;;;3.50;2.30;;;;;;;17.64;73.13;100529.38;4998655;28;20022;-47
2023/07/01 02:43:26;;;;;;;3.90;2.00;;;;;;;17.57;74.75;100531.09;4998395;28;20037;-47
2023/07/01 02:45:52;;;;;;;5.82;2.50;;;;;;;17.50;75.73;100517.50;4998028;28;20489;-47
2023/07/01 02:48:17;;;;;;;6.80;2.22;;;;;;;17.45;76.78;100524.38;4996816;28;20030;-46
2023/07/01 02:50:42;;;;;;;5.03;2.35;;;;;;;17.37;78.03;100525.25;5001738;28;20495;-48
2023/07/01 02:53:08;;;;;;;5.05;2.45;;;;;;;17.37;78.76;100527.94;5000155;28;20041;-48
2023/07/01 02:55:35;;;;;;;5.40;2.17;;;;;;;17.32;78.98;100525.75;4996968;28;20034;-47
2023/07/01 02:58:01;;;;;;;5.47;2.30;;;;;;;17.29;80.37;100523.41;4997228;28;20134;-47
2023/07/01 03:00:26;;;;;;;4.85;2.47;;;;;;;17.32;79.53;100524.91;5001248;28;20113;-49
2023/07/01 03:02:51;;;;;;;4.25;2.13;;;;;;;17.31;80.48;100521.38;5002545;28;20033;-48
2023/07/01 03:05:21;;;;;;;4.45;2.30;;;;;;;17.26;81.58;100517.53;4997507;28;20034;-46
2023/07/01 03:07:46;;;;;;;;;;;;;;;17.36;77.02;100524.41;4999280;28;20034;-47
2023/07/01 03:10:11;;;;;;;5.82;2.35;;;;;;;17.22;81.70;100526.91;4993524;28;20363;-48
2023/07/01 03:12:37;;;;;;;3.90;2.30;;;;;;;17.20;82.90;100513.66;4999302;28;20105;-49
2023/07/01 03:15:02;;;;;;;4.38;2.30;;;;;;;17.15;83.62;100511.53;4999433;28;20033;-48
2023/07/01 03:17:28;;;;;;;4.40;2.55;;;;;;;17.15;83.30;100511.53;5001919;28;20030;-48
2023/07/01 03:19:53;;;;;;;3.47;2.00;;;;;;;17.09;84.18;100509.50;5001029;28;20087;-48
2023/07/01 03:22:18;;;;;;;3.83;2.10;;;;;;;17.09;84.85;100506.00;4998540;28;20030;-48
2023/07/01 03:24:44;;;;;;;4.18;2.22;;;;;;;17.08;85.11;100505.13;4996690;28;20080;-48
2023/07/01 03:27:09;;;;;;;3.90;2.42;;;;;;;17.05;85.46;100492.03;5000173;28;20028;-50
2023/07/01 03:29:34;;;;;;;4.05;2.20;;;;;;;17.00;85.70;100497.94;4997294;28;20260;-51
2023/07/01 03:32:00;;;;;;;5.32;2.58;;;;;;;17.00;85.62;100486.34;4999278;28;20025;-48
2023/07/01 03:34:25;;;;;;;5.95;2.40;;;;;;;16.99;85.85;100496.25;5000071;28;20042;-51
2023/07/01 03:36:51;;;;;;;6.22;2.60;;;;;;;16.95;86.32;100494.94;4998234;28;20026;-48
2023/07/01 03:39:16;;;;;;;2.33;2.10;;;;;;;16.96;86.93;100495.75;5000404;28;20083;-49
2023/07/01 03:41:42;;;;;;;4.05;2.38;;;;;;;16.95;86.47;100492.25;4997413;28;20025;-48
2023/07/01 03:44:07;;;;;;;3.72;2.20;;;;;;;16.95;87.67;100491.38;4998669;28;20426;-48
2023/07/01 03:46:32;;;;;;;2.70;2.13;;;;;;;16.91;89.25;100482.00;4999818;28;20133;-48
2023/07/01 03:48:58;;;;;;;2.92;2.10;;;;;;;16.92;88.69;100484.53;5000645;28;20077;-48
2023/07/01 03:51:23;;;;;;;5.95;2.25;;;;;;;16.89;90.04;100489.41;4982412;28;20138;-48
2023/07/01 03:53:49;;;;;;;5.47;2.60;;;;;;;16.86;90.43;100476.31;4996192;28;20026;-48
2023/07/01 03:56:14;;;;;;;5.57;2.60;;;;;;;16.76;91.29;100477.28;4997905;28;20015;-48
2023/07/01 03:58:40;;;;;;;3.47;2.30;;;;;;;16.75;90.98;100480.97;4999520;28;20498;-48
2023/07/01 04:01:05;;;;;;;4.60;2.65;;;;;;;16.76;91.28;100476.44;4996461;28;20396;-48
2023/07/01 04:03:33;;;;;;;3.28;2.72;;;;;;;16.70;92.76;100472.56;5003161;28;20450;-50
2023/07/01 04:05:58;;;;;;;3.53;2.75;;;;;;;16.69;94.34;100475.44;4998902;28;20026;-49
2023/07/01 04:08:23;;;;;;;4.78;2.75;;;;;;;16.61;95.07;100462.84;5000736;28;20034;-48
2023/07/01 04:10:49;;;;;;;2.50;2.22;;;;;;;16.58;95.60;100457.81;4999993;28;20030;-48
2023/07/01 04:13:14;;;;;;;3.30;2.60;;;;;;;16.54;95.65;100461.84;5004190;28;20500;-49
2023/07/01 04:15:40;;;;;;;2.38;2.17;;;;;;;16.53;96.33;100452.13;5002105;28;20023;-48
2023/07/01 04:18:05;;;;;;;2.92;2.42;;;;;;;16.54;98.18;100445.75;5002393;28;20446;-48
2023/07/01 04:20:31;;;;;;;2.67;2.35;;;;;;;16.53;97.80;100444.06;5000213;28;20056;-48
2023/07/01 04:22:56;;;;;;;2.70;2.50;;;;;;;16.52;98.76;100442.38;5002875;28;20025;-49
2023/07/01 04:25:22;;;;;;;2.47;2.28;;;;;;;16.49;98.31;100443.56;4998473;28;20379;-48
2023/07/01 04:27:47;;;;;;;3.88;2.42;;;;;;;16.48;99.26;100446.41;5003237;28;20030;-48
2023/07/01 04:30:13;;;;;;;4.28;2.35;;;;;;;16.42;99.30;100437.19;5000244;28;20088;-48
2023/07/01 04:32:39;;;;;;;3.05;2.28;;;;;;;16.40;99.29;100437.38;5000578;28;20038;-48
2023/07/01 04:35:05;;;;;;;4.53;2.30;;;;;;;16.39;100.00;100437.53;5001249;28;20050;-48
2023/07/01 04:37:30;;;;;;;2.65;2.42;;;;;;;16.38;100.00;100431.31;5018372;28;20030;-48
2023/07/01 04:39:55;;;;;;;3.17;2.35;;;;;;;16.37;99.68;100429.66;5001043;28;20121;-48
2023/07/01 04:42:21;;;;;;;6.68;2.30;;;;;;;16.42;100.00;100431.81;5002467;28;20061;-51
2023/07/01 04:44:53;;;;;;;3.25;2.45;;;;;;;16.39;100.00;100427.66;4999308;28;20058;-47
2023/07/01 04:47:23;;;;;;;3.83;2.10;;;;;;;16.39;100.00;100433.00;4999352;28;20491;-48
2023/07/01 04:49:52;;;;;;;2.70;2.50;;;;;;;16.36;100.00;100422.63;4999429;28;20019;-48
2023/07/01 04:52:17;;;;;;;2.55;2.17;;;;;;;16.39;100.00;100426.81;5002023;28;20049;-48
2023/07/01 04:54:43;;;;;;;2.80;2.28;;;;;;;16.35;100.00;100423.59;4999691;28;20030;-48
2023/07/01 04:57:08;;;;;;;2.47;2.30;;;;;;;16.38;100.00;100417.09;5000140;28;20037;-48
2023/07/01 04:59:33;;;;;;;2.25;2.05;;;;;;;16.33;100.00;100417.56;4998979;28;20472;-48
2023/07/01 05:01:59;;;;;;;2.65;2.20;;;;;;;16.30;100.00;100409.88;5001856;28;20075;-49
2023/07/01 05:04:24;;;;;;;3.13;2.00;;;;;;;16.29;100.00;100408.22;4999911;28;20022;-48
2023/07/01 05:06:51;;;;;;;3.22;2.20;;;;;;;16.27;100.00;100405.69;5003052;28;20464;-48
2023/07/01 05:09:16;;;;;;;2.40;2.15;;;;;;;16.33;100.00;100411.38;5000530;28;20030;-47
2023/07/01 05:11:41;;;;;;;2.33;1.95;;;;;;;16.31;100.00;100408.88;5000754;28;20091;-48
2023/07/01 05:14:07;;;;;;;3.22;2.35;;;;;;;16.32;100.00;100415.06;4999332;28;20029;-48
2023/07/01 05:16:32;;;;;;;3.05;2.03;;;;;;;16.34;100.00;100413.06;5002090;28;20108;-49
2023/07/01 05:18:58;;;;;;;2.47;2.10;;;;;;;16.33;100.00;100411.38;4998985;28;20044;-48
2023/07/01 05:21:24;;;;;;;2.30;2.10;;;;;;;16.32;100.00;100404.34;4999662;28;20391;-48
2023/07/01 05:23:49;;;;;;;2.83;2.33;;;;;;;16.34;100.00;100413.06;5000621;28;20040;-48
2023/07/01 05:26:14;;;;;;;3.63;2.20;;;;;;;16.32;100.00;100415.91;4999650;28;20061;-48
2023/07/01 05:28:40;;;;;;;2.72;2.20;;;;;;;16.30;100.00;100407.19;5000748;28;20733;-47
2023/07/01 05:31:05;;;;;;;2.25;2.05;;;;;;;16.31;100.00;100408.88;5003476;28;20530;-48
2023/07/01 05:33:30;;;;;;;3.63;2.28;;;;;;;16.33;100.00;100403.34;4999993;28;20188;-47
2023/07/01 05:35:56;;;;;;;2.88;2.50;;;;;;;16.28;100.00;100399.31;4996691;28;20019;-48
2023/07/01 05:38:21;;;;;;;2.70;2.30;;;;;;;16.25;100.00;100407.72;5003284;28;20061;-48
2023/07/01 05:40:46;;;;;;;2.58;2.38;;;;;;;16.24;100.00;100402.50;5001394;28;20038;-47
2023/07/01 05:43:12;;;;;;;4.88;2.10;;;;;;;16.25;100.00;100399.66;5000998;28;20055;-48
2023/07/01 05:45:37;;;;;;;5.20;2.55;;;;;;;16.25;100.00;100396.13;4999222;28;20136;-47
2023/07/01 05:48:03;;;;;;;2.65;2.38;;;;;;;16.25;100.00;100396.97;4998512;28;20034;-47
2023/07/01 05:50:28;;;;;;;2.95;2.15;;;;;;;16.26;100.00;100395.97;4999771;28;20077;-48
2023/07/01 05:52:53;;;;;;;2.50;2.30;;;;;;;16.25;100.00;100399.66;4991230;28;20026;-48
2023/07/01 05:55:19;;;;;;;3.08;2.13;;;;;;;16.27;100.00;100392.28;4995927;28;20022;-48
2023/07/01 05:57:44;;;;;;;4.80;2.55;;;;;;;16.28;100.00;100398.47;4995278;28;20132;-46
2023/07/01 06:00:13;;;;;;;3.13;2.50;;;;;;;16.26;100.00;100395.97;4996362;28;20510;-47
2023/07/01 06:02:40;;;;;;;3.03;2.35;;;;;;;16.33;100.00;100398.81;4989096;28;20310;-49
2023/07/01 06:05:06;;;;;;;3.50;2.35;;;;;;;16.31;100.00;100386.59;4996094;28;20415;-48
2023/07/01 06:07:31;;;;;;;2.38;2.17;;;;;;;16.34;100.00;100387.09;4996011;28;20034;-47
2023/07/01 06:09:57;;;;;;;4.05;2.28;;;;;;;16.35;100.00;100380.72;4997620;28;20376;-48
2023/07/01 06:12:22;;;;;;;3.58;2.40;;;;;;;16.37;100.00;100386.78;5018501;28;20034;-47
2023/07/01 06:14:47;;;;;;;3.17;2.20;;;;;;;16.42;100.00;100386.25;4997958;28;20042;-48
2023/07/01 06:17:13;;;;;;;1.90;1.80;;;;;;;16.43;100.00;100380.72;5000952;28;20073;-48
2023/07/01 06:19:38;;;;;;;3.15;2.10;;;;;;;16.44;100.00;100387.78;4995181;28;20098;-47
2023/07/01 06:22:03;;;;;;;2.05;1.88;;;;;;;16.44;100.00;100381.59;4992938;28;20109;-48
2023/07/01 06:24:29;;;;;;;2.40;2.20;;;;;;;16.44;100.00;100377.06;4999327;28;20120;-48
2023/07/01 06:26:54;;;;;;;2.15;2.00;;;;;;;16.49;100.00;100376.56;4998454;28;20475;-48
2023/07/01 06:29:19;;;;;;;1.95;1.85;;;;;;;16.53;100.00;100372.53;5000310;28;20423;-48
2023/07/01 06:31:45;;;;;;;2.00;1.90;;;;;;;16.55;100.00;100378.53;4997259;28;20419;-48
2023/07/01 06:34:17;;;;;;;2.30;2.10;;;;;;;16.57;100.00;100370.34;4999325;28;20129;-49
2023/07/01 06:36:43;;;;;;;2.75;2.15;;;;;;;16.60;100.00;100370.00;4991847;28;20105;-48
2023/07/01 06:39:08;;;;;;;2.10;1.90;;;;;;;16.64;100.00;100376.72;4998566;28;20049;-48
2023/07/01 06:41:33;;;;;;;2.03;1.70;;;;;;;16.68;100.00;100367.31;5000876;28;20030;-48
2023/07/01 06:43:59;;;;;;;2.00;1.90;;;;;;;16.67;100.00;100368.34;4995895;28;20427;-48
2023/07/01 06:46:25;;;;;;;1.92;1.80;;;;;;;16.68;100.00;100370.00;4996608;28;20406;-48
2023/07/01 06:48:50;;;;;;;1.70;1.60;;;;;;;16.70;100.00;100369.84;4999245;28;20057;-48
2023/07/01 06:51:16;;;;;;;1.90;1.80;;;;;;;16.70;100.00;100373.34;4999552;28;20101;-48
2023/07/01 06:53:42;;;;;;;2.83;1.70;;;;;;;16.70;100.00;100370.66;4997782;28;20380;-48
2023/07/01 06:56:07;;;;;;;2.55;1.77;;;;;;;16.75;100.00;100380.88;5000947;28;20049;-48
2023/07/01 06:58:33;;;;;;;2.10;1.90;;;;;;;16.75;100.00;100370.16;5002748;28;20021;-48
2023/07/01 07:00:58;;;;;;;2.88;1.70;;;;;;;16.75;100.00;100375.53;4996058;28;20411;-48
2023/07/01 07:03:23;;;;;;;2.58;1.80;;;;;;;16.74;100.00;100374.69;4992855;28;20124;-48
2023/07/01 07:05:52;;;;;;;1.90;1.80;;;;;;;16.75;100.00;100384.44;4997958;28;20038;-47
2023/07/01 07:08:17;;;;;;;1.80;1.70;;;;;;;16.74;100.00;100373.88;4995678;28;20048;-48
2023/07/01 07:10:42;;;;;;;3.95;2.08;;;;;;;16.72;100.00;100371.34;4998863;28;20038;-47
2023/07/01 07:13:09;;;;;;;2.00;1.80;;;;;;;16.71;100.00;100368.84;4996310;28;20483;-48
2023/07/01 07:15:34;;;;;;;2.05;1.55;;;;;;;16.72;100.00;100366.00;5000813;28;20042;-48
2023/07/01 07:18:01;;;;;;;2.25;1.92;;;;;;;16.73;100.00;100361.47;4993685;28;20029;-47
2023/07/01 07:20:26;;;;;;;2.55;2.00;;;;;;;16.72;100.00;100360.63;4995235;28;20112;-47
2023/07/01 07:22:51;;;;;;;1.80;1.70;;;;;;;16.76;100.00;100367.31;4996944;28;20026;-48
2023/07/01 07:25:17;;;;;;;2.80;1.92;;;;;;;16.80;100.00;100365.97;4999437;28;20124;-48
2023/07/01 07:27:46;;;;;;;2.47;2.28;;;;;;;16.80;100.00;100359.75;4978166;28;20122;-48
2023/07/01 07:30:13;;;;;;;2.42;1.80;;;;;;;16.82;100.00;100355.09;5002016;28;20434;-48
2023/07/01 07:32:39;;;;;;;3.00;2.50;;;;;;;16.83;100.00;100362.94;4999154;28;20030;-48
2023/07/01 07:35:05;;;;;;;2.45;2.28;;;;;;;16.86;100.00;100363.66;4996703;28;20058;-51
2023/07/01 07:37:30;;;;;;;2.75;1.95;;;;;;;16.87;100.00;100360.81;4993880;28;20101;-48
2023/07/01 07:39:58;;;;;;;2.90;1.92;;;;;;;16.88;100.00;100357.09;4999075;28;20042;-47
2023/07/01 07:42:24;;;;;;;2.57;2.00;;;;;;;16.89;100.00;100353.41;4995981;28;20030;-48
2023/07/01 07:44:49;;;;;;;3.25;2.10;;;;;;;16.89;100.00;100353.41;4997485;28;20044;-48
2023/07/01 07:47:15;;;;;;;3.10;2.28;;;;;;;16.93;100.00;100353.91;5000226;28;20114;-49
2023/07/01 07:49:40;;;;;;;2.25;2.05;;;;;;;16.96;100.00;100354.41;4993432;28;20128;-48
2023/07/01 07:52:06;;;;;;;2.10;2.00;;;;;;;16.99;100.00;100347.88;4997552;28;20022;-48
2023/07/01 07:54:32;;;;;;;3.67;2.30;;;;;;;17.05;100.00;100346.31;4997617;28;20077;-48
2023/07/01 07:56:59;;;;;;;29.13;4.00;;;;;;;17.09;100.00;100355.72;4995244;28;20037;-48
2023/07/01 07:59:27;;;;;;;4.18;2.28;;;;;;;17.15;100.00;100357.69;4999148;28;20391;-48
2023/07/01 08:01:57;;;;;;;3.93;2.50;;;;;;;17.17;100.00;100345.78;4987903;28;20431;-48
2023/07/01 08:04:24;;;;;;;5.47;2.10;;;;;;;17.18;100.00;100344.75;4993743;28;20038;-47
2023/07/01 08:06:49;;;;;;;3.20;2.30;;;;;;;17.24;100.00;100345.13;4997810;28;20428;-50
2023/07/01 08:09:14;;;;;;;2.60;2.35;;;;;;;17.27;100.00;100340.22;4995084;28;20118;-48
2023/07/01 08:11:40;;;;;;;2.08;1.98;;;;;;;17.31;100.00;100341.53;4995891;28;20062;-48
2023/07/01 08:14:05;;;;;;;5.75;1.98;;;;;;;17.34;100.00;100337.69;4993722;28;20044;-48
2023/07/01 08:16:32;;;;;;;3.95;1.98;;;;;;;17.37;100.00;100335.47;4993092;28;20130;-48
2023/07/01 08:18:57;;;;;;;2.10;2.00;;;;;;;17.43;100.00;100339.31;5000827;28;20366;-48
2023/07/01 08:21:23;;;;;;;3.50;2.03;;;;;;;17.50;100.00;100340.31;4999369;28;20543;-49
2023/07/01 08:23:48;;;;;;;4.30;2.13;;;;;;;17.54;100.00;100338.91;4996058;28;20085;-48
2023/07/01 08:26:14;;;;;;;3.17;1.90;;;;;;;17.61;100.00;100344.44;4993222;28;20105;-48
2023/07/01 08:28:39;;;;;;;1.90;1.80;;;;;;;17.68;100.00;100344.56;4998797;28;20550;-47
2023/07/01 08:31:04;;;;;;;2.35;2.17;;;;;;;17.66;100.00;100341.22;4998579;28;20033;-49
2023/07/01 08:33:30;;;;;;;1.45;1.35;;;;;;;17.71;100.00;100336.97;4993526;28;20480;-49
2023/07/01 08:35:58;;;;;;;1.50;1.40;;;;;;;17.70;100.00;100334.47;5000525;28;20025;-49
2023/07/01 08:38:24;;;;;;;2.38;1.60;;;;;;;17.74;100.00;100338.50;4998490;28;20049;-49
2023/07/01 08:40:52;;;;;;;1.40;1.40;;;;;;;17.78;100.00;100339.78;4998655;28;20022;-48
2023/07/01 08:43:20;;;;;;;1.97;1.40;;;;;;;17.79;100.00;100337.97;4994442;28;20109;-48
2023/07/01 08:45:49;;;;;;;3.65;1.30;;;;;;;17.83;100.00;100347.31;4999744;28;20359;-48
2023/07/01 08:48:18;;;;;;;1.38;1.27;;;;;;;17.84;100.00;100335.59;4998261;28;20030;-48
2023/07/01 08:51:03;;;;;;;1.40;1.30;;;;;;;17.85;100.00;100340.78;4967944;28;20042;-48
2023/07/01 08:53:29;;;;;;;1.20;1.20;;;;;;;17.83;100.00;100332.03;4998849;28;20021;-48
2023/07/01 08:55:56;;;;;;;1.20;1.13;;;;;;;17.78;100.00;100337.09;5003373;28;20502;-48
2023/07/01 08:58:23;;;;;;;2.28;1.23;;;;;;;17.81;100.00;100336.75;4998642;28;20054;-48
2023/07/01 09:00:49;;;;;;;1.05;1.00;;;;;;;17.85;100.00;100330.03;5001203;28;20076;-49
2023/07/01 09:03:15;;;;;;;4.63;1.30;;;;;;;17.90;100.00;100329.50;5000321;28;20026;-49
2023/07/01 09:05:41;;;;;;;3.00;1.02;;;;;;;17.94;100.00;100331.66;5003348;28;20100;-48
2023/07/01 09:08:06;;;;;;;1.13;1.05;;;;;;;18.01;100.00;100333.66;5004176;28;20113;-48
2023/07/01 09:10:32;;;;;;;2.78;0.85;;;;;;;18.02;100.00;100327.25;5006109;28;20382;-48
2023/07/01 09:13:17;;;;;;;1.02;0.90;;;;;;;18.06;100.00;100331.25;5002071;28;20022;-48
2023/07/01 09:15:47;;;;;;;0.77;0.77;;;;;;;18.10;100.00;100335.25;4994948;28;20029;-48
2023/07/01 09:18:20;;;;;;;1.50;0.90;;;;;;;18.10;100.00;100336.09;5002494;28;20031;-48
2023/07/01 09:20:47;;;;;;;0.70;0.70;;;;;;;18.12;100.00;100336.75;5002177;28;20484;-48
2023/07/01 09:23:27;;;;;;;0.60;0.60;;;;;;;18.15;100.00;100327.47;4999871;28;20045;-48
2023/07/01 09:26:14;;;;;;;0.98;0.98;;;;;;;18.21;100.00;100332.16;4999711;28;20034;-48
2023/07/01 09:28:49;;;;;;;0.77;0.70;;;;;;;18.28;100.00;100326.88;4999287;28;20030;-49
2023/07/01 09:31:15;;;;;;;1.08;1.00;;;;;;;18.30;100.00;100327.53;4996970;28;20498;-48
2023/07/01 09:33:58;;;;;;;1.00;0.90;;;;;;;18.38;100.00;100319.41;4997809;28;20042;-50
2023/07/01 09:36:25;;;;;;;1.73;1.20;;;;;;;18.45;100.00;100320.38;4993351;28;20037;-48
2023/07/01 09:38:51;;;;;;;1.83;1.08;;;;;;;18.46;100.00;100319.31;5001522;28;20028;-51
2023/07/01 09:41:18;;;;;;;1.58;0.82;;;;;;;18.51;100.00;100316.09;4999751;28;20033;-50
2023/07/01 09:43:44;;;;;;;0.90;0.90;;;;;;;18.57;100.00;100314.50;4998479;28;20530;-50
2023/07/01 09:46:09;;;;;;;1.35;1.25;;;;;;;18.62;100.00;100314.84;5001413;28;20112;-48
2023/07/01 09:48:35;;;;;;;1.35;1.10;;;;;;;18.68;100.00;100311.38;5001198;28;20030;-48
2023/07/01 09:51:03;;;;;;;2.00;1.00;;;;;;;18.71;100.00;100310.19;4991861;28;20053;-48
2023/07/01 09:53:35;;;;;;;0.90;0.90;;;;;;;18.71;100.00;100318.25;5001406;28;20064;-48
2023/07/01 09:56:04;;;;;;;1.27;1.17;;;;;;;18.73;100.00;100319.75;4996595;28;20097;-49
2023/07/01 09:58:31;;;;;;;1.75;1.10;;;;;;;18.74;100.00;100310.66;4999853;28;20369;-48
2023/07/01 10:00:57;;;;;;;2.05;1.30;;;;;;;18.73;100.00;100318.91;4990230;28;20039;-48
2023/07/01 10:03:25;;;;;;;1.23;1.13;;;;;;;18.68;100.00;100317.63;5001289;28;20968;-48
2023/07/01 10:05:51;;;;;;;1.60;1.17;;;;;;;18.72;100.00;100317.22;4994601;28;20027;-48
2023/07/01 10:08:16;;;;;;;1.30;1.30;;;;;;;18.73;100.00;100318.91;4997665;28;20031;-48
2023/07/01 10:10:42;;;;;;;1.35;1.23;;;;;;;18.73;100.00;100303.59;5004214;28;20112;-48
2023/07/01 10:13:08;;;;;;;1.73;1.23;;;;;;;18.75;100.00;100306.97;4995675;28;20129;-48
2023/07/01 10:15:35;;;;;;;0.93;0.93;;;;;;;18.75;100.00;100315.03;4996117;28;20450;-48
2023/07/01 10:18:01;;;;;;;1.15;1.15;;;;;;;18.76;100.00;100305.09;4995365;28;20056;-48
2023/07/01 10:20:32;;;;;;;1.20;1.20;;;;;;;18.81;100.00;100305.38;5001304;28;20038;-48
2023/07/01 10:22:59;;;;;;;2.17;1.40;;;;;;;18.83;100.00;100303.38;5000471;28;20029;-48
2023/07/01 10:25:35;;;;;;;1.50;1.40;;;;;;;18.84;100.00;100300.50;4993455;28;20157;-48
2023/07/01 10:28:01;;;;;;;1.58;1.48;;;;;;;18.89;100.00;100302.63;4999356;28;20026;-48
2023/07/01 10:30:46;;;;;;;1.50;1.40;;;;;;;18.92;100.00;100299.56;5000544;28;20104;-48
2023/07/01 10:33:27;;;;;;;2.35;1.58;;;;;;;18.98;100.00;100306.06;4993655;28;20054;-49
2023/07/01 10:36:11;;;;;;;1.52;1.42;;;;;;;19.03;100.00;100299.13;4997131;28;20109;-49
2023/07/01 10:38:37;;;;;;;2.00;1.90;;;;;;;19.12;100.00;100301.69;5001888;28;20435;-48
2023/07/01 10:41:04;;;;;;;2.13;2.03;;;;;;;19.13;100.00;100304.19;4975374;28;20134;-48
2023/07/01 10:43:33;;;;;;;3.80;2.40;;;;;;;19.19;100.00;100305.31;4995182;28;20387;-48
2023/07/01 10:46:24;;;;;;;2.72;2.25;;;;;;;19.30;100.00;100294.06;4998762;28;20030;-48
2023/07/01 10:49:02;;;;;;;11.73;2.30;;;;;;;19.31;100.00;100298.41;4985039;28;20579;-48
2023/07/01 10:51:28;;;;;;;2.70;2.45;;;;;;;19.37;100.00;100303.06;5000014;28;20105;-48
2023/07/01 10:54:04;;;;;;;2.55;2.38;;;;;;;19.46;100.00;100298.38;4998272;28;20120;-48
2023/07/01 10:56:38;;;;;;;3.58;2.50;;;;;;;19.48;100.00;100304.41;5000642;28;20047;-48
2023/07/01 10:59:22;;;;;;;2.83;2.58;;;;;;;19.59;100.00;100303.94;4996896;28;20034;-48
2023/07/01 11:01:48;;;;;;;3.47;2.70;;;;;;;19.63;100.00;100295.47;4980693;28;20514;-48
2023/07/01 11:04:14;;;;;;;2.47;2.38;;;;;;;19.78;100.00;100290.88;5000289;28;20034;-48
2023/07/01 11:06:48;;;;;;;2.67;2.58;;;;;;;19.85;100.00;100299.03;4992057;28;20084;-48
2023/07/01 11:09:14;;;;;;;2.97;2.70;;;;;;;19.95;100.00;100291.47;5000780;28;20030;-48
2023/07/01 11:11:40;;;;;;;2.60;2.40;;;;;;;20.14;100.00;100292.69;4996972;28;20149;-48
2023/07/01 11:14:10;;;;;;;3.03;2.83;;;;;;;20.25;100.00;100285.94;5002255;28;20038;-49
2023/07/01 11:16:37;;;;;;;2.70;2.50;;;;;;;20.50;100.00;100289.88;4996585;28;20076;-48
2023/07/01 11:19:05;;;;;;;3.03;2.72;;;;;;;20.62;99.99;100290.16;4996157;28;20395;-48
2023/07/01 11:21:31;;;;;;;3.10;2.80;;;;;;;20.73;98.81;100282.56;4996557;28;20089;-48